Time;durP1;ratioP1;P1;durP2;ratioP2;P2;SDS_P1;SDS_P2;PMS_P1;PMS_P2;Temp;Humidity;BMP_temperature;BMP_pressure;BME280_temperature;BME280_humidity;BME280_pressure;Samples;Min_cycle;Max_cycle;Signal;HPM_P1;HPM_P2
2022/07/03 00:01:33;;;;;;;7.07;3.38;;;;;;;16.78;100.00;45983.66;5090511;28;20024;-79
2022/07/03 00:03:59;;;;;;;5.53;3.05;;;;;;;16.79;100.00;42628.59;5056719;28;20353;-79
2022/07/03 00:06:26;;;;;;;7.45;3.45;;;;;;;16.73;100.00;39270.59;5088483;28;20024;-78
2022/07/03 00:08:51;;;;;;;5.30;3.05;;;;;;;16.67;100.00;35247.63;5076347;28;20069;-79
2022/07/03 00:11:17;;;;;;;4.63;3.20;;;;;;;16.70;100.00;30565.41;5076950;28;20096;-79
2022/07/03 00:13:43;;;;;;;6.55;2.97;;;;;;;16.76;100.00;29566.03;5075892;28;20503;-80
2022/07/03 00:16:08;;;;;;;6.10;2.85;;;;;;;16.84;100.00;31577.59;5094524;28;20392;-82
2022/07/03 00:18:34;;;;;;;4.47;2.80;;;;;;;16.93;100.00;31582.69;5076483;28;20052;-82
2022/07/03 00:21:01;;;;;;;5.20;3.10;;;;;;;17.01;100.00;31587.81;5060066;28;20032;-82
2022/07/03 00:23:42;;;;;;;5.90;3.45;;;;;;;16.90;100.00;32584.91;5076278;28;20411;-82
2022/07/03 00:26:09;;;;;;;4.88;2.80;;;;;;;16.88;100.00;25896.31;5076416;28;20172;-82
2022/07/03 00:28:35;;;;;;;6.70;2.80;;;;;;;16.85;100.00;23891.41;5076172;28;20016;-82
2022/07/03 00:31:01;;;;;;;7.00;2.50;;;;;;;16.88;100.00;24894.25;5070553;28;20126;-83
2022/07/03 00:33:34;;;;;;;4.88;2.38;;;;;;;16.91;100.00;28571.50;5056179;28;21106;-82
2022/07/03 00:35:59;;;;;;;4.63;2.53;;;;;;;16.93;100.00;32921.56;5072058;28;20035;-82
2022/07/03 00:38:26;;;;;;;4.65;2.80;;;;;;;16.91;100.00;29909.25;5075763;28;20028;-82
2022/07/03 00:40:51;;;;;;;5.43;2.45;;;;;;;16.90;100.00;27568.13;5075120;28;20020;-82
2022/07/03 00:43:19;;;;;;;5.75;2.80;;;;;;;16.89;100.00;25228.78;5092277;28;20028;-82
2022/07/03 00:45:50;;;;;;;5.00;2.75;;;;;;;16.88;100.00;25228.25;5074362;28;20020;-81
2022/07/03 00:48:18;;;;;;;4.20;2.30;;;;;;;16.81;100.00;26894.97;5075744;28;20031;-80
2022/07/03 00:50:49;;;;;;;5.20;2.50;;;;;;;16.85;100.00;28234.25;5057820;28;20043;-81
2022/07/03 00:53:27;;;;;;;4.43;2.55;;;;;;;16.90;100.00;29239.56;5055694;28;20052;-81
2022/07/03 00:55:54;;;;;;;4.18;2.38;;;;;;;16.92;100.00;28906.41;5089019;28;20055;-80
2022/07/03 00:58:20;;;;;;;7.45;3.00;;;;;;;16.92;100.00;30912.97;5073478;28;20112;-80
2022/07/03 01:00:52;;;;;;;7.10;2.60;;;;;;;16.96;100.00;28240.13;5055747;28;20405;-81
2022/07/03 01:03:21;;;;;;;5.72;2.55;;;;;;;17.03;100.00;30920.19;5088740;28;20028;-79
2022/07/03 01:05:52;;;;;;;5.40;2.50;;;;;;;17.08;100.00;34270.47;5068140;28;20028;-79
2022/07/03 01:08:34;;;;;;;5.60;2.90;;;;;;;16.98;100.00;37613.41;5075493;28;20028;-81
2022/07/03 01:11:17;;;;;;;5.47;2.50;;;;;;;17.09;100.00;39297.38;5070935;28;20013;-79
2022/07/03 01:14:19;;;;;;;3.92;2.60;;;;;;;17.07;100.00;40302.28;5089055;28;20400;-78
2022/07/03 01:16:56;;;;;;;4.03;2.38;;;;;;;16.97;100.00;42642.97;5087931;28;20060;-79
2022/07/03 01:19:45;;;;;;;5.00;2.58;;;;;;;17.05;100.00;42984.72;5085660;28;20035;-80
2022/07/03 01:22:27;;;;;;;4.50;2.40;;;;;;;17.00;100.00;41638.88;5055180;28;20032;-80
2022/07/03 01:24:56;;;;;;;6.05;3.20;;;;;;;16.93;100.00;35600.03;5054927;28;20032;-80
2022/07/03 01:27:39;;;;;;;4.40;2.67;;;;;;;16.92;100.00;29241.06;5070659;28;20119;-80
2022/07/03 01:30:10;;;;;;;7.13;2.50;;;;;;;16.79;100.00;24555.81;5055216;28;20035;-82
2022/07/03 01:32:38;;;;;;;5.20;2.40;;;;;;;16.80;100.00;24556.34;5055141;28;20789;-82
2022/07/03 01:35:06;;;;;;;4.03;2.50;;;;;;;16.87;100.00;27232.50;5055036;28;20021;-82
2022/07/03 01:37:34;;;;;;;3.97;2.38;;;;;;;16.90;100.00;28236.63;5072778;28;20060;-80
2022/07/03 01:40:03;;;;;;;5.68;2.40;;;;;;;16.93;100.00;28238.66;5065917;28;20081;-81
2022/07/03 01:42:32;;;;;;;8.70;2.53;;;;;;;16.95;100.00;30246.16;5075249;28;20039;-82
2022/07/03 01:45:00;;;;;;;3.58;2.47;;;;;;;16.86;100.00;30575.06;5075290;28;20031;-80
2022/07/03 01:47:28;;;;;;;5.00;2.58;;;;;;;16.86;100.00;29572.13;5035234;28;20029;-82
2022/07/03 01:49:54;;;;;;;5.13;2.70;;;;;;;16.84;100.00;28567.66;5051638;28;20025;-81
2022/07/03 01:52:21;;;;;;;6.60;2.65;;;;;;;16.73;100.00;26890.47;5052025;28;20033;-82
2022/07/03 01:54:49;;;;;;;5.47;2.60;;;;;;;16.76;100.00;23552.97;5074774;28;20028;-82
2022/07/03 01:57:15;;;;;;;4.43;2.25;;;;;;;16.75;100.00;25555.50;5075596;28;20025;-81
2022/07/03 01:59:41;;;;;;;5.18;2.10;;;;;;;16.77;100.00;26892.72;5074964;28;20508;-81
2022/07/03 02:02:09;;;;;;;5.30;1.88;;;;;;;16.81;100.00;29234.44;5060268;28;20095;-81
2022/07/03 02:05:10;;;;;;;5.18;1.75;;;;;;;16.73;100.00;30901.34;5088584;28;20024;-82
2022/07/03 02:07:53;;;;;;;4.90;1.73;;;;;;;16.70;100.00;33241.28;5047689;28;20043;-81
2022/07/03 02:10:27;;;;;;;3.70;1.58;;;;;;;16.73;100.00;34247.25;5088309;28;20111;-81
2022/07/03 02:13:00;;;;;;;5.43;1.73;;;;;;;16.69;100.00;34914.28;5069414;28;20028;-82
2022/07/03 02:15:32;;;;;;;4.00;1.90;;;;;;;16.77;100.00;35588.75;5052956;28;20439;-79
2022/07/03 02:18:04;;;;;;;4.72;1.60;;;;;;;16.79;100.00;37935.13;5039419;28;20488;-78
2022/07/03 02:20:35;;;;;;;3.47;1.30;;;;;;;16.85;100.00;41291.44;5058828;28;20536;-79
2022/07/03 02:23:07;;;;;;;2.80;1.10;;;;;;;16.92;100.00;45995.03;5058826;28;20357;-79
2022/07/03 02:25:40;;;;;;;3.88;1.25;;;;;;;16.94;100.00;50364.75;5058284;28;20024;-80
2022/07/03 02:28:24;;;;;;;3.33;1.20;;;;;;;16.95;100.00;56421.72;5077022;28;20040;-80
2022/07/03 02:30:54;;;;;;;4.60;1.20;;;;;;;16.95;100.00;60801.81;5056298;28;20033;-79
2022/07/03 02:33:25;;;;;;;3.75;1.15;;;;;;;16.97;100.00;63501.09;5058867;28;20047;-81
2022/07/03 02:35:53;;;;;;;;;;;;;;;16.88;100.00;65514.72;5069672;28;20059;-79
2022/07/03 02:38:20;;;;;;;5.35;1.55;;;;;;;16.89;100.00;62817.88;5078075;28;20372;-80
2022/07/03 02:41:09;;;;;;;3.83;1.10;;;;;;;16.89;100.00;56415.41;5077834;28;20168;-79
2022/07/03 02:44:07;;;;;;;3.60;1.25;;;;;;;16.88;100.00;48006.72;5077839;28;20430;-79
2022/07/03 02:46:59;;;;;;;5.28;1.30;;;;;;;16.90;100.00;45322.19;5078438;28;20081;-79
2022/07/03 02:50:03;;;;;;;2.30;0.98;;;;;;;16.84;100.00;40285.09;5078152;28;20031;-78
2022/07/03 02:53:04;;;;;;;5.38;1.17;;;;;;;16.86;100.00;42969.88;5062243;28;20028;-78
2022/07/03 02:55:57;;;;;;;3.13;1.00;;;;;;;16.88;100.00;46663.59;5080065;28;20078;-78
2022/07/03 02:58:46;;;;;;;4.90;1.00;;;;;;;16.94;100.00;47340.72;5077925;28;20089;-79
2022/07/03 03:01:27;;;;;;;2.55;0.82;;;;;;;16.93;100.00;49691.50;5063431;28;20040;-78
2022/07/03 03:04:15;;;;;;;4.68;1.10;;;;;;;16.97;100.00;49695.25;5091925;28;20059;-79
2022/07/03 03:06:47;;;;;;;3.90;1.15;;;;;;;17.02;100.00;46676.00;5057488;28;20055;-78
2022/07/03 03:09:19;;;;;;;3.25;0.90;;;;;;;17.00;100.00;46338.34;5057500;28;20031;-79
2022/07/03 03:11:47;;;;;;;6.85;1.10;;;;;;;17.03;100.00;42311.94;5057664;28;20137;-79
2022/07/03 03:14:20;;;;;;;4.60;1.05;;;;;;;17.05;100.00;41978.41;5057568;28;20155;-78
2022/07/03 03:16:48;;;;;;;4.95;1.08;;;;;;;17.01;100.00;40633.38;5057220;28;20150;-80
2022/07/03 03:19:14;;;;;;;8.45;1.23;;;;;;;17.05;100.00;38624.53;5063931;28;20020;-78
2022/07/03 03:21:52;;;;;;;6.30;1.10;;;;;;;17.08;100.00;39632.34;5077203;28;20152;-79
2022/07/03 03:24:22;;;;;;;3.90;1.08;;;;;;;17.04;100.00;39964.97;5077614;28;20028;-80
2022/07/03 03:26:48;;;;;;;4.05;1.17;;;;;;;17.07;100.00;38625.66;5076336;28;20016;-82
2022/07/03 03:29:13;;;;;;;3.63;1.50;;;;;;;17.04;100.00;36612.50;5072676;28;20039;-80
2022/07/03 03:31:39;;;;;;;4.18;1.20;;;;;;;17.00;100.00;34599.88;5076173;28;20044;-80
2022/07/03 03:34:06;;;;;;;3.03;1.00;;;;;;;17.01;100.00;32257.44;5077167;28;20538;-80
2022/07/03 03:36:32;;;;;;;3.92;1.05;;;;;;;17.00;100.00;30249.25;5076923;28;20484;-79
2022/07/03 03:38:58;;;;;;;4.10;1.20;;;;;;;16.92;100.00;29909.56;5077295;28;20502;-81
2022/07/03 03:41:24;;;;;;;3.33;1.00;;;;;;;16.86;100.00;27900.63;5075582;28;20020;-81
2022/07/03 03:43:49;;;;;;;3.53;1.15;;;;;;;16.85;100.00;24559.22;5077778;28;20029;-79
2022/07/03 03:46:15;;;;;;;6.22;1.10;;;;;;;16.88;100.00;22557.34;5066900;28;20028;-79
2022/07/03 03:48:41;;;;;;;5.88;1.15;;;;;;;16.91;100.00;21557.31;5075960;28;20358;-80
2022/07/03 03:51:07;;;;;;;3.25;1.20;;;;;;;16.88;100.00;20554.97;5077100;28;20415;-78
2022/07/03 03:53:37;;;;;;;5.43;1.20;;;;;;;16.92;100.00;18889.22;5076661;28;20024;-79
2022/07/03 03:56:11;;;;;;;4.63;1.13;;;;;;;16.92;100.00;16222.03;5088645;28;20027;-79
2022/07/03 03:58:39;;;;;;;3.72;0.93;;;;;;;16.86;100.00;10559.19;5056536;28;20124;-78
2022/07/03 04:01:06;;;;;;;4.95;1.20;;;;;;;16.79;100.00;6566.75;5056704;28;20465;-78
2022/07/03 04:03:36;;;;;;;5.05;1.52;;;;;;;16.74;100.00;2247.78;5055908;28;20700;-78
2022/07/03 04:06:02;;;;;;;6.50;1.13;;;;;;;16.74;100.00;-407.03;5056704;28;20476;-80
2022/07/03 04:08:28;;;;;;;4.68;1.10;;;;;;;16.73;100.00;-2728.59;5073547;28;20024;-80
2022/07/03 04:10:54;;;;;;;4.50;1.15;;;;;;;16.73;100.00;-4717.22;5060352;28;20024;-80
2022/07/03 04:13:21;;;;;;;4.70;1.23;;;;;;;16.74;100.00;-7698.28;5057743;28;20025;-80
2022/07/03 04:15:48;;;;;;;5.45;1.20;;;;;;;16.67;100.00;-10015.09;5075879;28;20154;-79
2022/07/03 04:18:14;;;;;;;6.53;1.38;;;;;;;16.67;100.00;-11999.75;5050531;28;20437;-79
2022/07/03 04:20:40;;;;;;;2.95;1.05;;;;;;;16.66;100.00;-13652.81;5034288;28;20099;-82
2022/07/03 04:23:06;;;;;;;4.60;1.23;;;;;;;16.77;100.00;-15636.94;5035026;28;20021;-78
2022/07/03 04:25:31;;;;;;;5.53;1.90;;;;;;;16.75;100.00;-16958.22;5055913;28;20059;-81
2022/07/03 04:27:57;;;;;;;6.63;1.25;;;;;;;16.82;100.00;-18280.47;5074278;28;20036;-80
2022/07/03 04:30:23;;;;;;;6.40;1.27;;;;;;;16.78;100.00;-18609.97;5055783;28;20723;-79
2022/07/03 04:32:54;;;;;;;5.32;1.38;;;;;;;16.80;100.00;-18940.50;5074552;28;20547;-81
2022/07/03 04:35:20;;;;;;;7.60;1.23;;;;;;;16.75;100.00;-18939.50;5065588;28;20123;-80
2022/07/03 04:37:46;;;;;;;7.85;1.42;;;;;;;16.76;100.00;-18939.69;5076063;28;20032;-81
2022/07/03 04:40:12;;;;;;;7.82;1.98;;;;;;;16.86;100.00;-19271.81;5074740;28;20028;-82
2022/07/03 04:42:42;;;;;;;7.72;1.65;;;;;;;16.93;100.00;-18942.72;5075713;28;20093;-81
2022/07/03 04:45:08;;;;;;;5.88;1.50;;;;;;;16.98;100.00;-18283.06;5075300;28;20127;-82
2022/07/03 04:47:33;;;;;;;6.90;1.48;;;;;;;17.02;100.00;-17292.59;5075424;28;20034;-82
2022/07/03 04:49:59;;;;;;;6.80;1.70;;;;;;;17.07;100.00;-17623.75;5071592;28;20473;-82
2022/07/03 04:52:24;;;;;;;6.95;1.35;;;;;;;17.05;100.00;-17293.06;5055747;28;20457;-81
2022/07/03 04:54:50;;;;;;;6.05;1.25;;;;;;;17.01;100.00;-17292.53;5055227;28;20050;-81
2022/07/03 04:57:15;;;;;;;6.65;1.25;;;;;;;17.09;100.00;-17293.63;5073399;28;20029;-82
2022/07/03 04:59:41;;;;;;;6.25;1.75;;;;;;;17.14;100.00;-16964.00;5055530;28;20063;-82
2022/07/03 05:02:07;;;;;;;5.25;1.50;;;;;;;17.03;100.00;-16962.31;5055822;28;20020;-82
2022/07/03 05:04:32;;;;;;;7.50;1.58;;;;;;;17.06;100.00;-17623.66;5089053;28;20742;-82
2022/07/03 05:06:59;;;;;;;4.40;1.50;;;;;;;17.25;100.00;-19278.88;5047263;28;20096;-81
2022/07/03 05:09:25;;;;;;;6.25;1.40;;;;;;;17.95;100.00;-17968.53;5082160;28;20107;-81
2022/07/03 05:11:51;;;;;;;6.80;1.33;;;;;;;18.08;100.00;-13334.97;5072952;28;20169;-83
2022/07/03 05:14:16;;;;;;;6.18;1.30;;;;;;;18.67;100.00;-10686.31;5073482;28;20032;-82
2022/07/03 05:16:42;;;;;;;6.28;1.30;;;;;;;19.67;100.00;-1706.28;5073544;28;20063;-79
2022/07/03 05:19:08;;;;;;;6.22;1.00;;;;;;;21.19;100.00;24780.91;5075189;28;20026;-79
2022/07/03 05:21:33;;;;;;;4.20;1.33;;;;;;;20.87;100.00;147969.88;5074576;28;20034;-80
2022/07/03 05:23:58;;;;;;;5.88;1.48;;;;;;;19.90;100.00;147729.00;5072732;28;20034;-79
2022/07/03 05:26:24;;;;;;;6.18;1.15;;;;;;;19.59;100.00;147650.78;5075167;28;20111;-79
2022/07/03 05:28:49;;;;;;;6.82;1.40;;;;;;;18.79;100.00;147451.09;5074964;28;20425;-82
2022/07/03 05:31:15;;;;;;;4.78;1.40;;;;;;;18.48;100.00;147374.31;5075177;28;20016;-82
2022/07/03 05:33:44;;;;;;;7.97;1.58;;;;;;;18.24;100.00;116038.66;5070451;28;20089;-80
2022/07/03 05:36:10;;;;;;;4.20;1.33;;;;;;;18.06;100.00;84290.09;5072891;28;20067;-81
2022/07/03 05:41:19;;;;;;;5.15;1.45;;;;;;;17.91;100.00;49444.81;5073515;28;20043;-83
2022/07/03 05:43:45;;;;;;;4.70;1.63;;;;;;;18.20;100.00;39716.44;5054496;28;20028;-81
2022/07/03 05:46:11;;;;;;;5.10;1.30;;;;;;;18.25;100.00;40728.34;5073161;28;20453;-83
2022/07/03 05:48:36;;;;;;;6.50;1.60;;;;;;;18.64;100.00;44459.00;5074704;28;20031;-82
2022/07/03 05:51:02;;;;;;;6.55;1.73;;;;;;;18.86;100.00;52565.44;5069101;28;20103;-82
2022/07/03 05:53:31;;;;;;;4.75;1.45;;;;;;;18.86;100.00;59657.47;5059551;28;20097;-82
2022/07/03 05:55:57;;;;;;;7.85;1.85;;;;;;;19.16;100.00;65442.19;5059769;28;20025;-83
2022/07/03 05:58:23;;;;;;;7.03;1.40;;;;;;;19.44;100.00;78369.47;5059623;28;20127;-83
2022/07/03 06:00:48;;;;;;;9.45;1.98;;;;;;;19.17;100.00;86154.59;5058588;28;20040;-82
2022/07/03 06:03:19;;;;;;;5.53;1.60;;;;;;;19.00;100.00;85449.47;5067287;28;20380;-81
2022/07/03 06:05:45;;;;;;;5.93;1.52;;;;;;;19.08;100.00;90227.09;5058583;28;20021;-82
2022/07/03 06:08:11;;;;;;;7.43;1.50;;;;;;;19.13;100.00;91939.16;5058550;28;20086;-83
2022/07/03 06:10:36;;;;;;;6.65;1.70;;;;;;;19.23;100.00;96047.84;5058518;28;20472;-82
2022/07/03 06:13:02;;;;;;;4.70;1.67;;;;;;;19.07;100.00;101485.03;5059151;28;20024;-81
2022/07/03 06:15:27;;;;;;;5.72;1.60;;;;;;;19.38;100.00;100172.59;5056607;28;20048;-81
2022/07/03 06:17:53;;;;;;;8.38;2.03;;;;;;;19.12;100.00;107990.06;5066072;28;20047;-80
2022/07/03 06:20:18;;;;;;;7.15;1.80;;;;;;;19.31;100.00;103578.34;5058835;28;20017;-83
2022/07/03 06:22:53;;;;;;;6.97;1.70;;;;;;;19.55;100.00;106700.25;5069490;28;20476;-81
2022/07/03 06:25:18;;;;;;;7.45;1.77;;;;;;;19.77;100.00;132161.00;5078270;28;20025;-81
2022/07/03 06:27:44;;;;;;;10.80;1.88;;;;;;;19.65;100.00;147664.91;5078338;28;20028;-81
2022/07/03 06:30:09;;;;;;;5.30;2.00;;;;;;;19.82;100.00;147708.47;5078227;28;20020;-81
2022/07/03 06:32:35;;;;;;;6.60;1.95;;;;;;;19.63;100.00;147659.78;5072975;28;20029;-81
2022/07/03 06:35:00;;;;;;;5.75;1.70;;;;;;;19.65;100.00;147666.16;5058740;28;20040;-80
2022/07/03 06:37:26;;;;;;;5.05;1.45;;;;;;;19.83;100.00;147709.78;5059097;28;20032;-81
2022/07/03 06:39:51;;;;;;;5.78;1.40;;;;;;;19.90;100.00;147727.69;5057740;28;20215;-80
2022/07/03 06:42:16;;;;;;;5.15;1.45;;;;;;;19.93;100.00;147734.09;5058593;28;20024;-81
2022/07/03 06:44:44;;;;;;;8.38;1.85;;;;;;;20.37;100.00;147844.22;5055659;28;20129;-79
2022/07/03 06:47:10;;;;;;;4.00;1.13;;;;;;;20.68;100.00;147921.16;5056937;28;20127;-78
2022/07/03 06:49:43;;;;;;;4.57;1.30;;;;;;;20.98;100.00;147996.78;5069117;28;20056;-80
2022/07/03 06:52:13;;;;;;;4.18;1.30;;;;;;;20.84;100.00;147962.19;5086873;28;20488;-79
2022/07/03 06:54:48;;;;;;;5.57;1.52;;;;;;;21.27;100.00;148068.53;5076611;28;20046;-81
2022/07/03 06:57:15;;;;;;;7.05;1.45;;;;;;;21.25;100.00;148063.41;5077343;28;20488;-80
2022/07/03 06:59:41;;;;;;;4.38;1.50;;;;;;;21.06;100.00;148017.28;5095287;28;20653;-79
2022/07/03 07:02:07;;;;;;;5.32;1.50;;;;;;;20.84;100.00;147960.91;5077502;28;20123;-81
2022/07/03 07:04:33;;;;;;;6.38;1.73;;;;;;;20.61;100.00;147905.72;5072055;28;20078;-82
2022/07/03 07:06:58;;;;;;;5.15;1.65;;;;;;;20.49;100.00;147874.97;5057098;28;20055;-80
2022/07/03 07:09:24;;;;;;;4.57;1.30;;;;;;;20.36;100.00;147841.69;5061632;28;20028;-80
2022/07/03 07:11:49;;;;;;;4.25;1.67;;;;;;;20.40;100.00;147851.91;5075921;28;20040;-79
2022/07/03 07:14:16;;;;;;;5.07;1.58;;;;;;;20.62;100.00;147908.31;5076443;28;20028;-76
2022/07/03 07:16:41;;;;;;;5.30;1.42;;;;;;;20.43;100.00;147860.91;5076413;28;20135;-79
2022/07/03 07:19:06;;;;;;;4.60;1.50;;;;;;;20.29;100.00;147825.06;5076029;28;20064;-79
2022/07/03 07:21:32;;;;;;;5.30;1.75;;;;;;;20.59;100.00;147900.63;5076801;28;20024;-81
2022/07/03 07:24:00;;;;;;;4.60;1.50;;;;;;;20.66;100.00;147916.03;5076784;28;20503;-80
2022/07/03 07:26:26;;;;;;;3.55;1.33;;;;;;;20.77;100.00;147945.53;5076329;28;20032;-79
2022/07/03 07:28:51;;;;;;;5.53;1.20;;;;;;;20.76;100.00;147942.94;5094276;28;20020;-80
2022/07/03 07:31:17;;;;;;;3.55;1.48;;;;;;;21.03;100.00;148008.31;5076592;28;20459;-79
2022/07/03 07:33:42;;;;;;;4.95;1.27;;;;;;;20.88;100.00;147971.13;5076204;28;20066;-78
2022/07/03 07:36:09;;;;;;;6.00;1.60;;;;;;;21.07;100.00;148019.84;5090864;28;20031;-82
2022/07/03 07:38:35;;;;;;;5.10;1.63;;;;;;;21.26;100.00;148066.00;5056303;28;20473;-81
2022/07/03 07:41:03;;;;;;;6.63;1.38;;;;;;;21.42;100.00;148107.00;5056700;28;20058;-81
2022/07/03 07:43:30;;;;;;;6.45;1.60;;;;;;;21.49;100.00;148125.00;5054471;28;20064;-81
2022/07/03 07:45:55;;;;;;;6.05;1.60;;;;;;;21.49;100.00;148123.75;5059897;28;20022;-81
2022/07/03 07:48:21;;;;;;;6.05;1.67;;;;;;;22.41;100.00;148353.34;5101134;28;20024;-81
2022/07/03 07:50:46;;;;;;;5.63;1.60;;;;;;;22.77;100.00;148443.13;5071409;28;20031;-80
2022/07/03 07:53:14;;;;;;;6.05;1.60;;;;;;;22.92;100.00;148481.63;5076993;28;20024;-80
2022/07/03 07:55:39;;;;;;;4.38;1.58;;;;;;;22.84;100.00;148461.13;5076367;28;20123;-81
2022/07/03 07:58:05;;;;;;;5.03;1.13;;;;;;;21.97;100.00;148244.28;5076620;28;20028;-82
2022/07/03 08:00:30;;;;;;;7.80;1.63;;;;;;;21.50;100.00;148127.59;5076525;28;20132;-81
2022/07/03 08:05:40;;;;;;;3.90;1.45;;;;;;;21.85;100.00;148214.75;5094481;28;20039;-82
2022/07/03 08:08:09;;;;;;;5.80;1.40;;;;;;;22.41;100.00;148353.34;5076197;28;20024;-82
2022/07/03 08:10:49;;;;;;;3.70;1.20;;;;;;;22.59;100.00;148398.19;5075814;28;20028;-80
2022/07/03 08:13:19;;;;;;;6.55;1.92;;;;;;;21.71;100.00;148177.59;5075015;28;20028;-81
2022/07/03 08:15:47;;;;;;;4.32;1.25;;;;;;;21.50;100.00;148126.28;5072904;28;20514;-79
2022/07/03 08:18:15;;;;;;;6.10;1.30;;;;;;;21.64;100.00;148160.91;5076274;28;20111;-81
2022/07/03 08:20:40;;;;;;;4.30;1.40;;;;;;;21.41;100.00;148103.16;5075964;28;20350;-79
2022/07/03 08:23:08;;;;;;;4.15;1.30;;;;;;;20.84;100.00;147960.91;5075007;28;20035;-78
2022/07/03 08:25:33;;;;;;;4.95;1.60;;;;;;;20.85;100.00;147964.75;5075407;28;20020;-80
2022/07/03 08:27:59;;;;;;;4.18;1.70;;;;;;;20.78;100.00;147948.06;5064722;28;20020;-78
2022/07/03 08:30:25;;;;;;;4.25;1.50;;;;;;;21.08;100.00;148022.38;5055655;28;20016;-81
2022/07/03 08:32:55;;;;;;;7.00;1.70;;;;;;;22.06;100.00;148266.03;5055123;28;20033;-79
2022/07/03 08:35:21;;;;;;;3.88;1.42;;;;;;;21.98;100.00;148245.53;5055360;28;20040;-79
2022/07/03 08:37:47;;;;;;;5.03;1.40;;;;;;;22.02;100.00;148257.06;5054357;28;20043;-80
2022/07/03 08:40:14;;;;;;;4.38;1.60;;;;;;;21.77;100.00;148194.25;5054228;28;20165;-77
2022/07/03 08:43:03;;;;;;;5.38;1.20;;;;;;;21.90;100.00;148225.03;5053594;28;20377;-79
2022/07/03 08:45:30;;;;;;;2.45;0.98;;;;;;;21.93;100.00;148234.00;5036457;28;20094;-78
2022/07/03 08:47:58;;;;;;;9.80;1.63;;;;;;;22.07;100.00;148268.63;5048056;28;20032;-76
2022/07/03 08:50:23;;;;;;;3.42;1.23;;;;;;;22.69;100.00;148422.63;5053824;28;20500;-79
2022/07/03 08:52:50;;;;;;;5.18;1.27;;;;;;;23.52;100.00;148630.53;5071138;28;20028;-77
2022/07/03 08:55:17;;;;;;;3.22;1.20;;;;;;;24.04;100.00;148759.03;5071925;28;20025;-78
2022/07/03 08:57:44;;;;;;;6.13;1.40;;;;;;;24.84;100.00;148959.44;5053487;28;20477;-79
2022/07/03 09:00:12;;;;;;;4.85;1.50;;;;;;;24.51;100.00;148877.19;5053509;28;20040;-79
2022/07/03 09:02:43;;;;;;;4.22;1.45;;;;;;;23.70;100.00;148674.25;5072278;28;20028;-79
2022/07/03 09:05:09;;;;;;;6.28;1.58;;;;;;;22.39;100.00;148349.47;5079969;28;20021;-80
2022/07/03 09:07:38;;;;;;;4.70;1.40;;;;;;;22.21;100.00;148303.25;5060340;28;20032;-80
2022/07/03 09:10:05;;;;;;;3.58;1.20;;;;;;;21.83;100.00;148208.31;5057419;28;20013;-79
2022/07/03 09:12:31;;;;;;;4.78;1.60;;;;;;;21.28;100.00;148071.13;5054861;28;20024;-77
2022/07/03 09:14:58;;;;;;;4.70;1.50;;;;;;;21.16;100.00;148042.94;5054808;28;20032;-82
2022/07/03 09:17:23;;;;;;;6.13;1.63;;;;;;;20.64;100.00;147912.16;5088686;28;20032;-81
2022/07/03 09:19:49;;;;;;;4.55;1.60;;;;;;;20.49;100.00;147874.97;5055088;28;20496;-81
2022/07/03 09:22:24;;;;;;;6.47;1.48;;;;;;;20.37;100.00;147845.53;5055383;28;20028;-80
2022/07/03 09:24:51;;;;;;;8.23;1.98;;;;;;;19.88;100.00;147722.56;5055185;28;20028;-82
2022/07/03 09:27:19;;;;;;;11.18;3.20;;;;;;;19.19;100.00;147552.25;5055160;28;20127;-83
2022/07/03 09:30:11;;;;;;;13.35;3.10;;;;;;;18.60;100.00;147405.03;5055799;28;20024;-85
2022/07/03 09:32:38;;;;;;;9.25;3.00;;;;;;;18.46;100.00;50505.56;5062486;28;20032;-81
2022/07/03 09:35:11;;;;;;;9.63;2.60;;;;;;;18.37;100.00;9602.09;5090473;28;20056;-82
2022/07/03 09:37:37;;;;;;;7.22;3.42;;;;;;;18.48;100.00;-9358.16;5057800;28;20039;-87
2022/07/03 09:40:03;;;;;;;9.43;2.92;;;;;;;18.37;100.00;-20953.72;5055177;28;20025;-85
2022/07/03 09:42:29;;;;;;;6.20;2.50;;;;;;;18.34;100.00;-25583.25;5074755;28;20028;-84
2022/07/03 09:44:54;;;;;;;5.35;2.25;;;;;;;18.38;100.00;-25584.56;5052865;28;20454;-79
2022/07/03 09:47:22;;;;;;;5.97;2.50;;;;;;;18.56;100.00;-25589.63;5088113;28;20029;-84
2022/07/03 09:50:05;;;;;;;6.07;2.22;;;;;;;19.00;100.00;-25602.06;5053759;28;20019;-80
2022/07/03 09:52:47;;;;;;;6.05;2.67;;;;;;;20.12;100.00;-25633.38;5054401;28;20035;-81
2022/07/03 09:55:19;;;;;;;5.60;2.15;;;;;;;20.45;100.00;-25642.75;5054434;28;20025;-77
2022/07/03 09:58:05;;;;;;;6.25;2.05;;;;;;;20.35;100.00;-25639.72;5054742;28;20029;-80
2022/07/03 10:00:33;;;;;;;5.90;2.20;;;;;;;20.80;100.00;-25652.41;5054211;28;20043;-79
2022/07/03 10:03:04;;;;;;;7.00;1.92;;;;;;;21.20;100.00;-25663.63;5054279;28;20115;-82
2022/07/03 10:05:33;;;;;;;7.55;2.13;;;;;;;21.65;100.00;-25676.28;5054815;28;20047;-83
2022/07/03 10:08:14;;;;;;;6.75;2.20;;;;;;;20.96;100.00;-25656.88;5055917;28;20032;-80
2022/07/03 10:10:43;;;;;;;5.85;1.80;;;;;;;21.07;100.00;-25659.91;5074715;28;20091;-82
2022/07/03 10:13:10;;;;;;;3.97;2.00;;;;;;;20.78;100.00;-25650.03;5058132;28;20027;-78
2022/07/03 10:15:37;;;;;;;4.45;1.85;;;;;;;21.09;100.00;-21342.50;5058197;28;20059;-81
2022/07/03 10:18:09;;;;;;;5.72;2.10;;;;;;;20.83;100.00;-17682.56;5055765;28;20036;-82
2022/07/03 10:20:44;;;;;;;4.68;2.00;;;;;;;20.56;100.00;-9363.53;5054542;28;20394;-84
2022/07/03 10:23:11;;;;;;;5.82;2.10;;;;;;;20.53;100.00;-11360.56;5054735;28;20124;-88
2022/07/03 10:25:40;;;;;;;5.72;2.08;;;;;;;20.53;100.00;-13356.69;5057624;28;20036;-87
2022/07/03 10:28:06;;;;;;;6.50;2.30;;;;;;;20.50;100.00;-13356.44;5089945;28;20017;-89
2022/07/03 10:30:32;;;;;;;5.90;2.00;;;;;;;20.30;100.00;-15681.28;5056040;28;20081;-85
2022/07/03 10:33:01;;;;;;;3.67;1.88;;;;;;;20.51;100.00;-15019.03;5056109;28;20388;-88
2022/07/03 10:35:31;;;;;;;7.00;2.47;;;;;;;20.55;100.00;-16681.50;5075432;28;20107;-84
2022/07/03 10:38:00;;;;;;;4.88;1.65;;;;;;;21.15;100.00;-15691.88;5057144;28;20113;-89
2022/07/03 10:46:31;;;;;;;4.38;1.67;;;;;;;22.23;100.00;39681.78;5075087;28;20451;-83
2022/07/03 10:49:02;;;;;;;6.55;1.80;;;;;;;21.85;100.00;134702.47;5059140;28;20505;-90
2022/07/03 10:51:31;;;;;;;4.70;1.83;;;;;;;21.14;100.00;148037.78;5059412;28;20384;-90
2022/07/03 10:54:26;;;;;;;5.80;1.80;;;;;;;20.84;100.00;122401.84;5076763;28;20082;-87
2022/07/03 10:56:57;;;;;;;2.58;1.52;;;;;;;20.51;100.00;94209.16;5060183;28;20020;-86
2022/07/03 10:59:24;;;;;;;2.92;1.27;;;;;;;20.01;100.00;96178.00;5092702;28;20025;-88
2022/07/03 11:02:22;;;;;;;4.05;1.50;;;;;;;19.70;100.00;73308.06;5060634;28;20047;-89
2022/07/03 11:05:00;;;;;;;3.70;1.60;;;;;;;19.33;100.00;48561.47;5060383;28;20028;-88
2022/07/03 11:07:38;;;;;;;5.88;1.85;;;;;;;19.21;100.00;25685.16;5059935;28;20044;-90
2022/07/03 11:10:13;;;;;;;3.22;1.40;;;;;;;19.14;100.00;21325.72;5095361;28;20051;-86
2022/07/03 11:13:20;;;;;;;5.43;1.50;;;;;;;19.21;100.00;23338.94;5091025;28;20033;-81
2022/07/03 11:15:52;;;;;;;3.80;1.58;;;;;;;19.40;100.00;22342.63;5057062;28;20101;-79
2022/07/03 11:18:31;;;;;;;5.55;1.90;;;;;;;19.35;100.00;12301.72;5058828;28;20047;-78
2022/07/03 11:21:15;;;;;;;5.70;1.63;;;;;;;19.66;100.00;14317.97;5057780;28;20032;-81
2022/07/03 11:23:56;;;;;;;5.03;1.90;;;;;;;20.25;100.00;16013.31;5090743;28;20032;-79
2022/07/03 11:26:22;;;;;;;4.28;1.60;;;;;;;20.56;100.00;58483.59;5057250;28;20033;-80
2022/07/03 11:28:53;;;;;;;4.45;1.52;;;;;;;21.29;100.00;75896.72;5056789;28;20090;-77
2022/07/03 11:31:21;;;;;;;;;;;;;;;21.64;100.00;136729.94;5057591;28;20035;-79
2022/07/03 11:33:56;;;;;;;4.68;1.70;;;;;;;21.59;100.00;148149.34;5056516;28;19927;-77
2022/07/03 11:36:21;;;;;;;4.18;1.77;;;;;;;20.88;100.00;147972.44;5057316;28;20024;-78
2022/07/03 11:38:48;;;;;;;4.97;1.70;;;;;;;20.77;100.00;147945.53;5090008;28;20487;-77
2022/07/03 11:41:15;;;;;;;4.72;2.00;;;;;;;20.45;100.00;147866.03;5056312;28;20024;-77
2022/07/03 11:43:50;;;;;;;5.38;1.88;;;;;;;20.30;100.00;147827.59;5056126;28;20028;-78
2022/07/03 11:46:21;;;;;;;4.55;2.00;;;;;;;20.41;100.00;147854.50;5056777;28;20047;-82